createdAt,value
2023-05-20T00:00:19.875Z,19.28
2023-05-20T00:02:46.472Z,19.26
2023-05-20T00:05:12.920Z,19.18
2023-05-20T00:07:39.803Z,19.21
2023-05-20T00:10:06.728Z,19.06
2023-05-20T00:12:33.269Z,19.25
2023-05-20T00:14:59.708Z,19.00
2023-05-20T00:17:28.130Z,18.42
2023-05-20T00:19:54.779Z,19.00
2023-05-20T00:22:21.634Z,18.57
2023-05-20T00:24:48.096Z,18.35
2023-05-20T00:27:14.556Z,18.45
2023-05-20T00:29:40.977Z,18.42
2023-05-20T00:32:07.786Z,18.26
2023-05-20T00:34:34.390Z,18.22
2023-05-20T00:37:00.801Z,18.39
2023-05-20T00:39:27.250Z,18.20
2023-05-20T00:41:53.716Z,18.13
2023-05-20T00:44:23.883Z,18.37
2023-05-20T00:46:50.475Z,18.45
2023-05-20T00:49:17.473Z,17.98
2023-05-20T00:51:44.054Z,18.47
2023-05-20T00:54:10.771Z,17.67
2023-05-20T00:56:37.307Z,18.21
2023-05-20T00:59:04.719Z,17.99
2023-05-20T01:01:31.093Z,17.99
2023-05-20T01:03:57.533Z,17.93
2023-05-20T01:06:24.127Z,17.94
2023-05-20T01:08:50.654Z,17.86
2023-05-20T01:11:35.571Z,17.77
2023-05-20T01:14:06.608Z,17.75
2023-05-20T01:16:35.478Z,17.54
2023-05-20T01:19:03.955Z,17.57
2023-05-20T01:21:32.235Z,17.37
2023-05-20T01:23:58.681Z,17.43
2023-05-20T01:26:27.037Z,16.94
2023-05-20T01:28:54.267Z,17.32
2023-05-20T01:31:32.492Z,17.29
2023-05-20T01:34:00.187Z,17.07
2023-05-20T01:36:27.611Z,17.53
2023-05-20T01:38:55.231Z,17.58
2023-05-20T01:41:25.073Z,17.41
2023-05-20T01:43:51.622Z,17.74
2023-05-20T01:46:18.092Z,17.74
2023-05-20T01:48:44.455Z,17.61
2023-05-20T01:51:10.955Z,17.34
2023-05-20T01:53:37.335Z,17.57
2023-05-20T01:56:05.785Z,17.53
2023-05-20T01:58:32.278Z,17.42
2023-05-20T02:00:58.765Z,17.51
2023-05-20T02:03:25.237Z,17.03
2023-05-20T02:05:51.720Z,17.21
2023-05-20T02:08:18.164Z,16.93
2023-05-20T02:10:44.580Z,16.69
2023-05-20T02:13:10.983Z,16.95
2023-05-20T02:15:41.574Z,16.88
2023-05-20T02:18:08.406Z,16.80
2023-05-20T02:20:38.434Z,16.95
2023-05-20T02:23:05.862Z,16.75
2023-05-20T02:25:32.915Z,16.98
2023-05-20T02:27:59.585Z,16.91
2023-05-20T02:30:26.966Z,16.96
2023-05-20T02:32:53.424Z,17.03
2023-05-20T02:35:19.983Z,16.88
2023-05-20T02:37:46.481Z,16.95
2023-05-20T02:40:12.899Z,17.12
2023-05-20T02:42:39.320Z,16.99
2023-05-20T02:45:06.379Z,17.04
2023-05-20T02:47:32.784Z,16.92
2023-05-20T02:49:59.201Z,17.25
2023-05-20T02:52:25.567Z,17.21
2023-05-20T02:54:52.744Z,17.17
2023-05-20T02:57:19.211Z,16.90
2023-05-20T02:59:45.980Z,16.81
2023-05-20T03:02:12.330Z,17.25
2023-05-20T03:04:38.936Z,17.02
2023-05-20T03:07:07.505Z,16.85
2023-05-20T03:09:33.910Z,16.87
2023-05-20T03:12:00.435Z,16.66
2023-05-20T03:14:26.874Z,16.41
2023-05-20T03:16:55.916Z,16.48
2023-05-20T03:19:22.618Z,16.33
2023-05-20T03:21:50.565Z,16.06
2023-05-20T03:24:16.996Z,15.90
2023-05-20T03:26:43.823Z,15.32
2023-05-20T03:29:10.789Z,15.95
2023-05-20T03:31:37.195Z,15.69
2023-05-20T03:34:03.610Z,15.89
2023-05-20T03:36:30.017Z,15.72
2023-05-20T03:38:56.518Z,15.86
2023-05-20T03:41:23.077Z,15.68
2023-05-20T03:43:49.508Z,15.81
2023-05-20T03:46:16.086Z,16.18
2023-05-20T03:48:42.540Z,16.05
2023-05-20T03:51:08.911Z,15.82
2023-05-20T03:53:35.297Z,16.01
2023-05-20T03:56:01.714Z,16.19
2023-05-20T03:58:29.215Z,16.29
2023-05-20T04:00:55.890Z,16.33
2023-05-20T04:03:22.899Z,16.19
2023-05-20T04:05:50.573Z,16.53
2023-05-20T04:08:18.729Z,16.48
2023-05-20T04:10:46.309Z,16.63
2023-05-20T04:13:12.725Z,16.56
2023-05-20T04:15:39.205Z,16.46
2023-05-20T04:18:06.219Z,16.78
2023-05-20T04:20:33.184Z,16.79
2023-05-20T04:22:59.679Z,16.69
2023-05-20T04:25:26.112Z,16.60
2023-05-20T04:27:54.197Z,16.21
2023-05-20T04:30:22.009Z,16.53
2023-05-20T04:32:50.583Z,16.32
2023-05-20T04:35:17.439Z,16.40
2023-05-20T04:37:47.983Z,16.70
2023-05-20T04:40:14.682Z,16.45
2023-05-20T04:42:41.100Z,16.65
2023-05-20T04:45:08.769Z,16.60
2023-05-20T04:47:38.628Z,16.84
2023-05-20T04:50:13.413Z,16.96
2023-05-20T04:52:41.798Z,16.81
2023-05-20T04:55:12.681Z,16.70
2023-05-20T04:57:42.277Z,16.68
2023-05-20T05:00:10.620Z,16.63
2023-05-20T05:02:37.484Z,16.69
2023-05-20T05:05:04.204Z,16.64
2023-05-20T05:07:31.060Z,16.75
2023-05-20T05:09:57.529Z,16.92
2023-05-20T05:12:24.018Z,16.73
2023-05-20T05:14:50.944Z,16.60
2023-05-20T05:17:17.853Z,16.52
2023-05-20T05:19:44.213Z,16.25
2023-05-20T05:22:10.774Z,16.76
2023-05-20T05:24:37.206Z,16.79
2023-05-20T05:27:03.789Z,16.42
2023-05-20T05:29:30.331Z,16.99
2023-05-20T05:31:56.778Z,16.42
2023-05-20T05:34:23.211Z,16.99
2023-05-20T05:36:49.616Z,16.98
2023-05-20T05:39:16.256Z,16.84
2023-05-20T05:41:42.687Z,16.93
2023-05-20T05:44:09.179Z,16.80
2023-05-20T05:46:35.689Z,16.98
2023-05-20T05:49:02.276Z,17.07
2023-05-20T05:51:29.050Z,17.18
2023-05-20T05:53:55.458Z,16.73
2023-05-20T05:56:21.848Z,17.01
2023-05-20T05:58:48.403Z,17.31
2023-05-20T06:01:14.863Z,16.68
2023-05-20T06:03:41.351Z,17.39
2023-05-20T06:06:07.939Z,17.53
2023-05-20T06:08:34.374Z,17.67
2023-05-20T06:11:00.776Z,17.80
2023-05-20T06:13:27.146Z,17.91
2023-05-20T06:15:53.737Z,17.69
2023-05-20T06:18:20.135Z,17.58
2023-05-20T06:20:46.528Z,17.35
2023-05-20T06:23:12.973Z,17.84
2023-05-20T06:25:39.401Z,17.72
2023-05-20T06:28:05.840Z,18.06
2023-05-20T06:30:32.274Z,17.80
2023-05-20T06:32:58.723Z,18.05
2023-05-20T06:35:25.233Z,18.12
2023-05-20T06:37:51.660Z,17.71
2023-05-20T06:40:18.206Z,18.28
2023-05-20T06:42:44.668Z,18.27
2023-05-20T06:45:11.558Z,18.26
2023-05-20T06:47:38.094Z,18.36
2023-05-20T06:50:04.853Z,18.59
2023-05-20T06:52:31.229Z,18.80
2023-05-20T06:54:57.595Z,18.05
2023-05-20T06:57:23.990Z,18.79
2023-05-20T06:59:50.454Z,18.80
2023-05-20T07:02:16.903Z,19.00
2023-05-20T07:04:43.479Z,18.93
2023-05-20T07:07:09.902Z,19.22
2023-05-20T07:09:36.289Z,18.22
2023-05-20T07:12:03.560Z,18.70
2023-05-20T07:14:30.054Z,18.43
2023-05-20T07:16:56.461Z,18.99
2023-05-20T07:19:22.918Z,19.08
2023-05-20T07:21:50.030Z,19.15
2023-05-20T07:24:17.286Z,18.94
2023-05-20T07:26:43.936Z,19.43
2023-05-20T07:29:10.416Z,19.33
2023-05-20T07:31:36.895Z,19.13
2023-05-20T07:34:03.403Z,18.61
2023-05-20T07:36:30.685Z,19.57
2023-05-20T07:39:03.880Z,19.56
2023-05-20T07:41:31.496Z,19.55
2023-05-20T07:43:57.895Z,19.45
2023-05-20T07:46:24.340Z,19.64
2023-05-20T07:48:50.798Z,19.67
2023-05-20T07:51:17.188Z,19.84
2023-05-20T07:53:43.613Z,19.63
2023-05-20T07:56:10.057Z,19.83
2023-05-20T07:58:36.534Z,19.84
2023-05-20T08:01:03.247Z,19.92
2023-05-20T08:03:29.825Z,20.00
2023-05-20T08:05:56.275Z,19.80
2023-05-20T08:08:22.635Z,19.37
2023-05-20T08:10:50.903Z,19.93
2023-05-20T08:13:17.349Z,20.03
2023-05-20T08:15:43.763Z,20.08
2023-05-20T08:18:10.227Z,20.18
2023-05-20T08:20:36.699Z,20.25
2023-05-20T08:23:03.184Z,20.37
2023-05-20T08:25:32.645Z,20.32
2023-05-20T08:28:03.875Z,19.90
2023-05-20T08:30:30.682Z,20.32
2023-05-20T08:32:57.244Z,20.27
2023-05-20T08:35:24.777Z,20.12
2023-05-20T08:37:53.914Z,20.47
2023-05-20T08:40:21.317Z,20.65
2023-05-20T08:42:54.347Z,20.75
2023-05-20T08:45:26.450Z,20.79
2023-05-20T08:47:53.677Z,20.93
2023-05-20T08:50:21.067Z,20.94
2023-05-20T08:52:49.128Z,21.10
2023-05-20T08:55:26.901Z,21.23
2023-05-20T08:57:55.149Z,21.34
2023-05-20T09:00:27.185Z,21.49
2023-05-20T09:02:54.725Z,21.40
2023-05-20T09:05:22.201Z,21.40
2023-05-20T09:07:49.235Z,21.63
2023-05-20T09:10:15.788Z,21.59
2023-05-20T09:12:42.263Z,21.36
2023-05-20T09:15:09.087Z,21.60
2023-05-20T09:17:37.131Z,21.48
2023-05-20T09:20:08.809Z,21.55
2023-05-20T09:22:35.565Z,21.47
2023-05-20T09:25:02.069Z,21.15
2023-05-20T09:27:28.456Z,21.76
2023-05-20T09:29:54.865Z,21.92
2023-05-20T09:32:24.238Z,21.89
2023-05-20T09:34:51.125Z,21.94
2023-05-20T09:37:22.171Z,22.05
2023-05-20T09:40:03.893Z,21.87
2023-05-20T09:42:47.866Z,22.09
2023-05-20T09:45:14.308Z,22.21
2023-05-20T09:47:41.660Z,22.55
2023-05-20T09:50:08.963Z,22.55
2023-05-20T09:52:37.295Z,22.53
2023-05-20T09:55:05.812Z,22.48
2023-05-20T09:57:36.282Z,22.80
2023-05-20T10:00:08.581Z,22.66
2023-05-20T10:02:36.039Z,22.31
2023-05-20T10:05:08.154Z,22.23
2023-05-20T10:07:42.592Z,22.73
2023-05-20T10:10:21.631Z,22.91
2023-05-20T10:13:00.060Z,22.97
2023-05-20T10:16:03.463Z,23.10
2023-05-20T10:18:50.680Z,22.86
2023-05-20T10:21:18.838Z,22.99
2023-05-20T10:23:45.961Z,23.10
2023-05-20T10:26:12.588Z,23.30
2023-05-20T10:28:41.110Z,23.42
2023-05-20T10:31:23.968Z,23.88
2023-05-20T10:33:53.262Z,23.90
2023-05-20T10:36:28.151Z,23.93
2023-05-20T10:38:59.450Z,23.48
2023-05-20T10:41:30.570Z,24.10
2023-05-20T10:44:04.646Z,23.86
2023-05-20T10:46:41.927Z,24.10
2023-05-20T10:49:25.160Z,23.98
2023-05-20T10:51:54.209Z,24.66
2023-05-20T10:54:22.151Z,24.91
2023-05-20T10:56:53.664Z,24.69
2023-05-20T10:59:21.654Z,24.63
2023-05-20T11:01:48.466Z,24.95
2023-05-20T11:04:17.238Z,24.34
2023-05-20T11:06:54.209Z,24.24
2023-05-20T11:09:20.965Z,24.67
2023-05-20T11:11:47.803Z,24.73
2023-05-20T11:14:14.986Z,24.77
2023-05-20T11:16:42.298Z,24.83
2023-05-20T11:19:09.496Z,24.65
2023-05-20T11:21:43.157Z,24.87
2023-05-20T11:24:09.635Z,25.09
2023-05-20T11:26:36.883Z,25.29
2023-05-20T11:29:03.526Z,25.01
2023-05-20T11:31:31.818Z,25.78
2023-05-20T11:34:02.297Z,25.56
2023-05-20T11:36:28.850Z,25.95
2023-05-20T11:38:58.516Z,26.01
2023-05-20T11:41:28.641Z,25.42
2023-05-20T11:43:57.152Z,24.99
2023-05-20T11:46:23.600Z,25.68
2023-05-20T11:48:56.903Z,25.92
2023-05-20T11:51:27.310Z,25.39
2023-05-20T11:53:54.244Z,25.79
2023-05-20T11:56:21.921Z,26.21
2023-05-20T11:58:48.492Z,26.30
2023-05-20T12:03:47.367Z,26.23
2023-05-20T12:06:14.059Z,26.23
2023-05-20T12:08:40.533Z,26.08
2023-05-20T12:11:07.108Z,26.21
2023-05-20T12:13:35.215Z,26.37
2023-05-20T12:16:02.321Z,26.03
2023-05-20T12:18:28.792Z,25.56
2023-05-20T12:20:55.275Z,25.72
2023-05-20T12:23:21.829Z,26.23
2023-05-20T12:25:49.825Z,26.39
2023-05-20T12:28:17.637Z,26.45
2023-05-20T12:30:44.085Z,25.94
2023-05-20T12:33:10.488Z,25.68
2023-05-20T12:35:43.733Z,26.42
2023-05-20T12:38:10.478Z,27.02
2023-05-20T12:40:42.030Z,26.50
2023-05-20T12:43:08.615Z,26.74
2023-05-20T12:45:35.120Z,26.22
2023-05-20T12:48:02.119Z,26.46
2023-05-20T12:50:28.614Z,26.45
2023-05-20T12:52:55.400Z,25.76
2023-05-20T12:55:22.130Z,25.58
2023-05-20T12:57:49.749Z,25.58
2023-05-20T13:00:16.629Z,25.58
2023-05-20T13:02:43.639Z,25.65
2023-05-20T13:05:11.226Z,25.92
2023-05-20T13:07:37.995Z,26.20
2023-05-20T13:10:05.253Z,26.59
2023-05-20T13:12:31.767Z,26.30
2023-05-20T13:14:58.213Z,26.36
2023-05-20T13:17:24.753Z,26.18
2023-05-20T13:19:51.533Z,26.15
2023-05-20T13:22:18.132Z,25.66
2023-05-20T13:24:44.559Z,26.44
2023-05-20T13:27:11.068Z,26.73
2023-05-20T13:29:37.674Z,26.84
2023-05-20T13:32:04.420Z,26.87
2023-05-20T13:34:31.606Z,26.43
2023-05-20T13:36:58.163Z,26.35
2023-05-20T13:39:24.982Z,26.30
2023-05-20T13:41:53.394Z,26.52
2023-05-20T13:44:19.826Z,26.94
2023-05-20T13:46:46.321Z,26.29
2023-05-20T13:49:12.967Z,26.29
2023-05-20T13:51:39.343Z,25.93
2023-05-20T13:54:06.546Z,25.71
2023-05-20T13:56:33.765Z,25.93
2023-05-20T13:59:00.177Z,26.17
2023-05-20T14:01:28.444Z,26.03
2023-05-20T14:03:55.015Z,25.18
2023-05-20T14:06:21.590Z,25.60
2023-05-20T14:08:47.975Z,25.74
2023-05-20T14:11:14.363Z,25.82
2023-05-20T14:13:41.356Z,26.11
2023-05-20T14:16:07.851Z,25.63
2023-05-20T14:18:34.242Z,25.92
2023-05-20T14:21:00.990Z,25.58
2023-05-20T14:23:27.400Z,25.79
2023-05-20T14:25:53.882Z,25.82
2023-05-20T14:28:20.341Z,25.72
2023-05-20T14:30:46.793Z,25.32
2023-05-20T14:33:13.259Z,25.79
2023-05-20T14:35:39.696Z,25.32
2023-05-20T14:38:06.793Z,25.71
2023-05-20T14:40:33.326Z,25.25
2023-05-20T14:43:00.086Z,25.26
2023-05-20T14:45:26.451Z,25.62
2023-05-20T14:47:52.985Z,25.49
2023-05-20T14:50:19.466Z,25.83
2023-05-20T14:52:46.168Z,25.80
2023-05-20T14:55:12.613Z,25.60
2023-05-20T14:57:39.061Z,25.17
2023-05-20T15:00:06.025Z,25.43
2023-05-20T15:02:32.650Z,25.26
2023-05-20T15:04:59.221Z,25.38
2023-05-20T15:07:26.550Z,25.32
2023-05-20T15:09:53.018Z,25.33
2023-05-20T15:12:19.434Z,25.24
2023-05-20T15:14:45.864Z,25.22
2023-05-20T15:17:12.781Z,25.07
2023-05-20T15:19:41.626Z,25.12
2023-05-20T15:22:08.417Z,25.51
2023-05-20T15:24:34.837Z,25.67
2023-05-20T15:27:01.250Z,25.54
2023-05-20T15:29:27.717Z,25.05
2023-05-20T15:31:54.117Z,25.27
2023-05-20T15:34:20.513Z,25.51
2023-05-20T15:36:46.935Z,25.29
2023-05-20T15:39:13.346Z,25.35
2023-05-20T15:41:42.140Z,24.76
2023-05-20T15:44:08.915Z,25.23
2023-05-20T15:46:35.698Z,25.18
2023-05-20T15:49:02.239Z,25.30
2023-05-20T15:51:28.770Z,25.29
2023-05-20T15:53:55.235Z,25.16
2023-05-20T15:56:22.260Z,25.16
2023-05-20T15:58:48.771Z,25.41
2023-05-20T16:01:15.384Z,25.07
2023-05-20T16:03:41.926Z,25.37
2023-05-20T16:06:10.405Z,25.22
2023-05-20T16:08:37.559Z,24.83
2023-05-20T16:11:04.705Z,25.49
2023-05-20T16:13:31.497Z,25.23
2023-05-20T16:15:58.157Z,24.85
2023-05-20T16:18:26.158Z,24.73
2023-05-20T16:20:52.598Z,24.88
2023-05-20T16:23:19.014Z,25.07
2023-05-20T16:25:45.622Z,25.20
2023-05-20T16:28:12.033Z,25.32
2023-05-20T16:30:38.499Z,25.25
2023-05-20T16:33:04.960Z,25.41
2023-05-20T16:35:31.401Z,25.26
2023-05-20T16:37:58.231Z,25.21
2023-05-20T16:40:24.687Z,24.98
2023-05-20T16:42:51.185Z,24.92
2023-05-20T16:45:17.607Z,24.88
2023-05-20T16:47:44.135Z,24.94
2023-05-20T16:50:10.671Z,25.05
2023-05-20T16:52:40.017Z,24.94
2023-05-20T16:55:08.343Z,24.99
2023-05-20T16:57:35.188Z,24.83
2023-05-20T17:00:02.268Z,24.52
2023-05-20T17:02:28.778Z,24.64
2023-05-20T17:04:55.310Z,24.23
2023-05-20T17:07:21.721Z,24.76
2023-05-20T17:09:48.145Z,24.45
2023-05-20T17:12:14.609Z,24.56
2023-05-20T17:14:40.970Z,24.38
2023-05-20T17:17:09.233Z,24.27
2023-05-20T17:19:36.198Z,24.37
2023-05-20T17:22:02.665Z,24.31
2023-05-20T17:24:29.053Z,24.39
2023-05-20T17:26:55.502Z,24.27
2023-05-20T17:29:21.956Z,24.08
2023-05-20T17:31:48.417Z,24.03
2023-05-20T17:34:14.877Z,23.93
2023-05-20T17:36:42.245Z,23.86
2023-05-20T17:39:09.657Z,24.01
2023-05-20T17:41:36.127Z,23.93
2023-05-20T17:44:02.476Z,23.85
2023-05-20T17:46:28.987Z,23.67
2023-05-20T17:48:56.764Z,23.90
2023-05-20T17:51:23.311Z,23.86
2023-05-20T17:53:49.807Z,23.97
2023-05-20T17:56:16.520Z,23.92
2023-05-20T17:58:44.992Z,23.47
2023-05-20T18:01:11.456Z,23.52
2023-05-20T18:03:39.701Z,23.66
2023-05-20T18:06:06.527Z,23.72
2023-05-20T18:08:33.776Z,23.69
2023-05-20T18:11:00.228Z,23.64
2023-05-20T18:13:26.650Z,23.64
2023-05-20T18:15:53.143Z,23.36
2023-05-20T18:18:19.676Z,23.54
2023-05-20T18:20:46.094Z,23.64
2023-05-20T18:23:12.525Z,23.64
2023-05-20T18:25:41.103Z,23.42
2023-05-20T18:28:09.675Z,23.41
2023-05-20T18:30:36.595Z,22.82
2023-05-20T18:33:03.390Z,23.17
2023-05-20T18:35:29.792Z,23.37
2023-05-20T18:37:56.352Z,22.85
2023-05-20T18:40:22.807Z,23.57
2023-05-20T18:42:49.255Z,23.33
2023-05-20T18:45:16.075Z,23.02
2023-05-20T18:47:43.616Z,23.12
2023-05-20T18:50:10.765Z,23.03
2023-05-20T18:52:37.248Z,23.08
2023-05-20T18:55:04.020Z,22.65
2023-05-20T18:57:33.217Z,23.02
2023-05-20T18:59:59.688Z,23.21
2023-05-20T19:02:26.094Z,23.01
2023-05-20T19:04:52.571Z,23.05
2023-05-20T19:07:19.019Z,23.07
2023-05-20T19:09:45.525Z,22.88
2023-05-20T19:12:11.960Z,22.52
2023-05-20T19:14:38.368Z,22.67
2023-05-20T19:17:05.475Z,22.67
2023-05-20T19:19:32.028Z,22.99
2023-05-20T19:21:58.681Z,22.80
2023-05-20T19:24:25.596Z,22.95
2023-05-20T19:26:52.044Z,22.33
2023-05-20T19:29:18.538Z,22.85
2023-05-20T19:31:45.823Z,22.32
2023-05-20T19:34:12.214Z,22.97
2023-05-20T19:36:40.232Z,22.89
2023-05-20T19:39:07.673Z,22.80
2023-05-20T19:41:34.292Z,22.84
2023-05-20T19:44:01.686Z,22.72
2023-05-20T19:46:28.313Z,22.60
2023-05-20T19:48:54.791Z,22.52
2023-05-20T19:51:21.577Z,22.62
2023-05-20T19:53:47.927Z,22.51
2023-05-20T19:56:19.174Z,22.64
2023-05-20T19:58:46.320Z,22.42
2023-05-20T20:01:16.956Z,22.57
2023-05-20T20:03:44.147Z,22.52
2023-05-20T20:06:10.862Z,22.39
2023-05-20T20:08:41.608Z,22.50
2023-05-20T20:11:08.996Z,22.18
2023-05-20T20:13:35.516Z,22.15
2023-05-20T20:16:01.971Z,22.13
2023-05-20T20:18:28.398Z,21.63
2023-05-20T20:20:54.772Z,22.26
2023-05-20T20:23:21.374Z,22.21
2023-05-20T20:25:48.250Z,21.94
2023-05-20T20:28:14.754Z,21.71
2023-05-20T20:30:41.112Z,22.13
2023-05-20T20:33:09.478Z,21.63
2023-05-20T20:35:37.039Z,22.03
2023-05-20T20:38:08.765Z,21.89
2023-05-20T20:40:41.836Z,21.99
2023-05-20T20:43:10.790Z,21.74
2023-05-20T20:45:37.392Z,21.79
2023-05-20T20:48:08.139Z,21.44
2023-05-20T20:50:35.703Z,21.81
2023-05-20T20:53:02.350Z,21.04
2023-05-20T20:55:31.620Z,21.05
2023-05-20T20:58:02.352Z,20.98
2023-05-20T21:00:28.752Z,21.04
2023-05-20T21:02:55.283Z,21.56
2023-05-20T21:05:26.277Z,21.43
2023-05-20T21:07:58.222Z,21.58
2023-05-20T21:10:29.584Z,21.07
2023-05-20T21:12:57.460Z,21.44
2023-05-20T21:15:24.883Z,21.40
2023-05-20T21:17:51.522Z,21.44
2023-05-20T21:20:21.353Z,21.31
2023-05-20T21:22:48.270Z,21.31
2023-05-20T21:25:14.922Z,21.47
2023-05-20T21:27:41.484Z,20.77
2023-05-20T21:30:10.111Z,20.69
2023-05-20T21:32:37.040Z,20.91
2023-05-20T21:35:03.903Z,21.00
2023-05-20T21:37:30.757Z,21.06
2023-05-20T21:39:57.122Z,21.07
2023-05-20T21:42:23.546Z,21.02
2023-05-20T21:44:49.958Z,20.94
2023-05-20T21:47:16.350Z,20.97
2023-05-20T21:49:42.931Z,20.70
2023-05-20T21:52:09.673Z,20.93
2023-05-20T21:54:36.189Z,20.90
2023-05-20T21:57:02.696Z,20.35
2023-05-20T21:59:29.065Z,20.71
2023-05-20T22:01:56.261Z,20.66
2023-05-20T22:04:23.099Z,20.34
2023-05-20T22:06:50.986Z,20.13
2023-05-20T22:09:17.490Z,20.70
2023-05-20T22:11:45.038Z,20.52
2023-05-20T22:14:16.210Z,20.64
2023-05-20T22:16:46.688Z,20.61
2023-05-20T22:19:15.139Z,20.00
2023-05-20T22:21:50.406Z,20.61
2023-05-20T22:24:18.035Z,20.34
2023-05-20T22:26:44.681Z,20.48
2023-05-20T22:29:11.132Z,20.27
2023-05-20T22:31:38.116Z,20.17
2023-05-20T22:34:05.385Z,20.34
2023-05-20T22:36:36.044Z,20.15
2023-05-20T22:39:04.093Z,20.23
2023-05-20T22:41:30.889Z,20.04
2023-05-20T22:43:57.461Z,19.62
2023-05-20T22:46:24.549Z,19.73
2023-05-20T22:48:55.300Z,20.17
2023-05-20T22:51:22.618Z,20.00
2023-05-20T22:53:49.302Z,20.18
2023-05-20T22:56:16.015Z,19.98
2023-05-20T22:58:42.541Z,19.54
2023-05-20T23:01:09.500Z,20.03
2023-05-20T23:03:36.404Z,20.12
2023-05-20T23:06:02.887Z,19.60
2023-05-20T23:08:29.447Z,20.01
2023-05-20T23:10:55.985Z,20.02
2023-05-20T23:13:22.447Z,19.94
2023-05-20T23:15:49.131Z,19.66
2023-05-20T23:18:16.103Z,19.93
2023-05-20T23:20:42.637Z,19.85
2023-05-20T23:23:11.467Z,19.89
2023-05-20T23:25:38.546Z,19.84
2023-05-20T23:28:05.771Z,19.81
2023-05-20T23:30:32.167Z,19.97
2023-05-20T23:32:58.648Z,19.88
2023-05-20T23:35:25.642Z,19.75
2023-05-20T23:37:52.360Z,19.75
2023-05-20T23:40:19.033Z,19.56
2023-05-20T23:42:45.451Z,19.74
2023-05-20T23:45:12.083Z,19.83
2023-05-20T23:47:38.494Z,19.49
2023-05-20T23:50:05.244Z,19.48
2023-05-20T23:52:31.658Z,19.39
2023-05-20T23:54:58.541Z,19.45
2023-05-20T23:57:24.924Z,19.41
2023-05-20T23:59:51.495Z,19.29
